createdAt,value
2018-09-05T00:01:06.382Z,18.71
2018-09-05T00:03:35.710Z,18.69
2018-09-05T00:06:06.630Z,18.61
2018-09-05T00:08:36.031Z,18.63
2018-09-05T00:11:06.524Z,18.60
2018-09-05T00:13:35.943Z,18.59
2018-09-05T00:16:06.147Z,18.55
2018-09-05T00:18:35.474Z,18.51
2018-09-05T00:21:06.180Z,18.49
2018-09-05T00:23:35.536Z,18.47
2018-09-05T00:26:06.275Z,18.45
2018-09-05T00:28:35.704Z,18.40
2018-09-05T00:31:06.467Z,18.38
2018-09-05T00:33:35.827Z,18.34
2018-09-05T00:36:06.665Z,18.32
2018-09-05T00:38:36.006Z,18.29
2018-09-05T00:41:06.158Z,18.27
2018-09-05T00:43:36.570Z,18.24
2018-09-05T00:46:06.152Z,18.23
2018-09-05T00:48:35.522Z,18.21
2018-09-05T00:51:06.234Z,18.19
2018-09-05T00:53:35.614Z,18.16
2018-09-05T00:56:06.598Z,18.12
2018-09-05T00:58:36.583Z,18.10
2018-09-05T01:01:07.141Z,18.08
2018-09-05T01:03:36.514Z,18.07
2018-09-05T01:06:06.239Z,18.04
2018-09-05T01:08:36.317Z,18.01
2018-09-05T01:11:07.196Z,18.00
2018-09-05T01:13:36.594Z,17.96
2018-09-05T01:16:06.550Z,17.94
2018-09-05T01:18:36.055Z,17.92
2018-09-05T01:21:06.596Z,17.91
2018-09-05T01:23:35.953Z,17.88
2018-09-05T01:26:06.550Z,17.86
2018-09-05T01:28:35.891Z,17.84
2018-09-05T01:31:06.187Z,17.82
2018-09-05T01:33:36.087Z,17.80
2018-09-05T01:36:12.529Z,17.77
2018-09-05T01:38:42.595Z,17.75
2018-09-05T01:41:13.240Z,17.72
2018-09-05T01:43:43.437Z,17.83
2018-09-05T01:46:12.822Z,17.76
2018-09-05T01:48:42.141Z,17.71
2018-09-05T01:51:11.646Z,17.67
2018-09-05T01:53:40.933Z,17.64
2018-09-05T01:56:10.337Z,17.61
2018-09-05T01:58:39.704Z,17.57
2018-09-05T02:01:09.121Z,17.54
2018-09-05T02:03:38.486Z,17.48
2018-09-05T02:06:07.878Z,17.45
2018-09-05T02:08:37.346Z,17.43
2018-09-05T02:11:07.405Z,17.41
2018-09-05T02:13:37.667Z,17.38
2018-09-05T02:16:08.123Z,17.35
2018-09-05T02:18:37.713Z,17.34
2018-09-05T02:21:07.126Z,17.40
2018-09-05T02:23:36.595Z,17.33
2018-09-05T02:26:06.245Z,17.30
2018-09-05T02:28:35.602Z,17.27
2018-09-05T02:31:08.148Z,17.24
2018-09-05T02:33:37.703Z,17.19
2018-09-05T02:36:09.459Z,17.17
2018-09-05T02:38:39.496Z,17.15
2018-09-05T02:41:08.925Z,17.11
2018-09-05T02:43:44.208Z,17.06
2018-09-05T02:46:13.658Z,17.03
2018-09-05T02:48:43.204Z,17.00
2018-09-05T02:51:12.559Z,16.97
2018-09-05T02:53:42.422Z,16.94
2018-09-05T02:56:11.788Z,16.90
2018-09-05T02:58:41.102Z,16.87
2018-09-05T03:01:11.454Z,16.81
2018-09-05T03:03:40.862Z,16.83
2018-09-05T03:06:10.337Z,16.81
2018-09-05T03:08:39.810Z,16.77
2018-09-05T03:11:10.368Z,16.74
2018-09-05T03:13:39.802Z,16.72
2018-09-05T03:16:09.924Z,16.70
2018-09-05T03:18:40.100Z,16.67
2018-09-05T03:21:09.505Z,16.65
2018-09-05T03:23:38.845Z,16.62
2018-09-05T03:26:08.803Z,16.60
2018-09-05T03:28:38.245Z,16.58
2018-09-05T03:31:07.969Z,16.55
2018-09-05T03:33:37.953Z,16.54
2018-09-05T03:36:07.398Z,16.49
2018-09-05T03:38:36.790Z,16.46
2018-09-05T03:41:06.602Z,16.43
2018-09-05T03:43:35.930Z,16.40
2018-09-05T03:46:06.662Z,16.37
2018-09-05T03:48:36.010Z,16.35
2018-09-05T03:51:06.534Z,16.30
2018-09-05T03:53:36.733Z,16.29
2018-09-05T03:56:06.254Z,16.26
2018-09-05T03:58:35.673Z,16.22
2018-09-05T04:01:06.716Z,16.20
2018-09-05T04:03:36.126Z,16.18
2018-09-05T04:06:06.348Z,16.15
2018-09-05T04:08:35.747Z,16.10
2018-09-05T04:11:06.445Z,16.08
2018-09-05T04:13:35.729Z,16.04
2018-09-05T04:16:06.578Z,16.01
2018-09-05T04:18:35.981Z,15.98
2018-09-05T04:21:05.983Z,15.95
2018-09-05T04:23:39.959Z,15.92
2018-09-05T04:26:09.577Z,15.90
2018-09-05T04:28:38.970Z,15.87
2018-09-05T04:31:09.279Z,15.83
2018-09-05T04:33:38.763Z,15.81
2018-09-05T04:36:08.856Z,15.79
2018-09-05T04:38:38.334Z,15.78
2018-09-05T04:41:07.690Z,15.75
2018-09-05T04:43:37.001Z,15.74
2018-09-05T04:46:06.369Z,15.73
2018-09-05T04:48:35.951Z,15.70
2018-09-05T04:51:06.275Z,15.69
2018-09-05T04:53:35.749Z,15.68
2018-09-05T04:56:07.444Z,15.67
2018-09-05T04:58:36.987Z,15.63
2018-09-05T05:01:06.532Z,15.60
2018-09-05T05:03:35.833Z,15.58
2018-09-05T05:06:06.504Z,15.56
2018-09-05T05:08:35.879Z,15.54
2018-09-05T05:11:06.494Z,15.52
2018-09-05T05:13:38.654Z,15.51
2018-09-05T05:16:08.348Z,15.51
2018-09-05T05:18:37.714Z,15.52
2018-09-05T05:21:06.999Z,15.52
2018-09-05T05:23:36.342Z,15.51
2018-09-05T05:26:06.365Z,15.53
2018-09-05T05:28:35.801Z,15.53
2018-09-05T05:31:06.053Z,15.54
2018-09-05T05:33:36.045Z,15.56
2018-09-05T05:36:07.175Z,15.60
2018-09-05T05:38:37.387Z,15.63
2018-09-05T05:41:07.658Z,15.66
2018-09-05T05:43:37.338Z,15.69
2018-09-05T05:46:07.195Z,15.74
2018-09-05T05:48:37.313Z,15.78
2018-09-05T05:51:07.154Z,15.83
2018-09-05T05:53:36.548Z,15.90
2018-09-05T05:56:06.034Z,15.96
2018-09-05T05:58:35.410Z,16.03
2018-09-05T06:01:06.296Z,16.11
2018-09-05T06:03:36.022Z,16.19
2018-09-05T06:06:08.191Z,16.27
2018-09-05T06:08:37.750Z,16.35
2018-09-05T06:11:07.338Z,16.44
2018-09-05T06:13:36.690Z,16.55
2018-09-05T06:16:06.424Z,16.65
2018-09-05T06:18:35.999Z,16.73
2018-09-05T06:21:06.453Z,16.77
2018-09-05T06:23:35.976Z,16.92
2018-09-05T06:26:06.486Z,17.02
2018-09-05T06:28:35.981Z,17.13
2018-09-05T06:31:06.723Z,17.24
2018-09-05T06:33:35.914Z,17.34
2018-09-05T06:36:09.925Z,17.44
2018-09-05T06:38:39.249Z,17.50
2018-09-05T06:41:08.655Z,17.59
2018-09-05T06:43:38.800Z,17.68
2018-09-05T06:46:08.210Z,17.78
2018-09-05T06:48:37.628Z,17.88
2018-09-05T06:51:08.181Z,17.98
2018-09-05T06:53:38.878Z,18.06
2018-09-05T06:56:08.550Z,18.15
2018-09-05T06:58:38.098Z,18.27
2018-09-05T07:01:07.589Z,18.41
2018-09-05T07:03:36.966Z,18.54
2018-09-05T07:06:07.622Z,18.62
2018-09-05T07:08:37.014Z,18.70
2018-09-05T07:11:06.410Z,18.80
2018-09-05T07:13:36.173Z,18.89
2018-09-05T07:16:06.515Z,19.01
2018-09-05T07:18:36.181Z,19.12
2018-09-05T07:21:07.027Z,19.25
2018-09-05T07:23:37.247Z,19.41
2018-09-05T07:26:06.811Z,19.56
2018-09-05T07:28:36.542Z,19.71
2018-09-05T07:31:06.490Z,19.84
2018-09-05T07:33:35.978Z,19.98
2018-09-05T07:36:06.295Z,20.09
2018-09-05T07:38:35.651Z,20.39
2018-09-05T07:41:12.921Z,20.56
2018-09-05T07:43:42.364Z,20.69
2018-09-05T07:46:11.766Z,20.81
2018-09-05T07:48:41.162Z,20.92
2018-09-05T07:51:11.232Z,21.04
2018-09-05T07:53:40.685Z,21.18
2018-09-05T07:56:10.586Z,21.29
2018-09-05T07:58:40.175Z,21.34
2018-09-05T08:01:10.009Z,21.43
2018-09-05T08:03:39.838Z,21.56
2018-09-05T08:06:09.480Z,21.64
2018-09-05T08:08:38.980Z,21.76
2018-09-05T08:11:08.398Z,21.88
2018-09-05T08:13:37.746Z,22.00
2018-09-05T08:16:07.924Z,22.14
2018-09-05T08:18:37.417Z,22.27
2018-09-05T08:21:07.610Z,22.43
2018-09-05T08:23:36.977Z,22.60
2018-09-05T08:26:06.503Z,22.78
2018-09-05T08:28:35.858Z,22.90
2018-09-05T08:31:06.930Z,23.09
2018-09-05T08:33:38.903Z,23.26
2018-09-05T08:36:08.901Z,23.42
2018-09-05T08:38:37.978Z,23.58
2018-09-05T08:41:11.540Z,23.75
2018-09-05T08:43:41.900Z,23.89
2018-09-05T08:46:11.435Z,24.02
2018-09-05T08:48:40.724Z,24.13
2018-09-05T08:51:10.129Z,24.28
2018-09-05T08:53:40.898Z,24.43
2018-09-05T08:56:11.365Z,24.57
2018-09-05T08:58:40.701Z,24.75
2018-09-05T09:01:10.206Z,24.90
2018-09-05T09:03:39.594Z,24.98
2018-09-05T09:06:09.530Z,25.07
2018-09-05T09:08:39.080Z,25.14
2018-09-05T09:11:09.467Z,25.26
2018-09-05T09:13:39.291Z,25.44
2018-09-05T09:16:08.947Z,25.57
2018-09-05T09:18:38.418Z,25.69
2018-09-05T09:21:07.883Z,25.77
2018-09-05T09:23:37.902Z,25.79
2018-09-05T09:26:10.037Z,25.78
2018-09-05T09:28:39.610Z,25.90
2018-09-05T09:31:09.010Z,26.06
2018-09-05T09:33:39.356Z,26.18
2018-09-05T09:36:12.088Z,26.37
2018-09-05T09:38:41.432Z,26.51
2018-09-05T09:41:10.921Z,26.61
2018-09-05T09:43:40.671Z,26.73
2018-09-05T09:46:10.576Z,26.86
2018-09-05T09:48:40.201Z,27.01
2018-09-05T09:51:09.645Z,27.12
2018-09-05T09:53:39.126Z,27.17
2018-09-05T09:56:09.564Z,27.21
2018-09-05T09:58:38.978Z,27.31
2018-09-05T10:01:13.485Z,27.39
2018-09-05T10:03:48.026Z,27.45
2018-09-05T10:06:20.629Z,27.59
2018-09-05T10:08:55.385Z,27.77
2018-09-05T10:11:30.047Z,27.90
2018-09-05T10:14:04.590Z,27.99
2018-09-05T10:16:39.129Z,28.00
2018-09-05T10:19:09.781Z,27.97
2018-09-05T10:21:39.713Z,28.09
2018-09-05T10:24:09.986Z,28.21
2018-09-05T10:26:39.355Z,28.24
2018-09-05T10:29:08.781Z,28.32
2018-09-05T10:31:38.290Z,28.42
2018-09-05T10:34:08.688Z,28.54
2018-09-05T10:36:38.070Z,28.71
2018-09-05T10:39:09.982Z,28.89
2018-09-05T10:41:41.113Z,29.09
2018-09-05T10:44:10.764Z,29.26
2018-09-05T10:46:41.656Z,29.56
2018-09-05T10:49:12.783Z,29.89
2018-09-05T10:51:47.429Z,30.22
2018-09-05T10:54:16.894Z,30.45
2018-09-05T10:56:46.388Z,30.64
2018-09-05T10:59:15.941Z,30.78
2018-09-05T11:01:45.321Z,30.86
2018-09-05T11:04:14.745Z,31.00
2018-09-05T11:06:44.366Z,31.13
2018-09-05T11:09:13.811Z,31.26
2018-09-05T11:11:44.297Z,31.28
2018-09-05T11:14:13.658Z,31.33
2018-09-05T11:16:43.177Z,31.46
2018-09-05T11:19:14.055Z,31.58
2018-09-05T11:21:43.444Z,31.65
2018-09-05T11:24:12.885Z,31.72
2018-09-05T11:26:42.269Z,31.87
2018-09-05T11:29:11.755Z,32.01
2018-09-05T11:31:41.133Z,32.04
2018-09-05T11:34:10.521Z,32.11
2018-09-05T11:36:39.885Z,32.15
2018-09-05T11:39:12.971Z,32.18
2018-09-05T11:41:42.338Z,32.31
2018-09-05T11:44:12.070Z,32.43
2018-09-05T11:46:41.474Z,32.60
2018-09-05T11:49:10.951Z,32.74
2018-09-05T11:51:40.595Z,32.72
2018-09-05T11:54:10.580Z,32.75
2018-09-05T11:56:41.376Z,33.16
2018-09-05T11:59:10.832Z,33.16
2018-09-05T12:01:40.198Z,33.12
2018-09-05T12:04:11.943Z,33.19
2018-09-05T12:06:41.660Z,33.46
2018-09-05T12:09:12.183Z,33.77
2018-09-05T12:11:41.610Z,34.16
2018-09-05T12:14:11.536Z,34.61
2018-09-05T12:16:40.991Z,35.05
2018-09-05T12:19:10.962Z,35.48
2018-09-05T12:21:40.333Z,35.83
2018-09-05T12:24:10.469Z,36.17
2018-09-05T12:26:41.096Z,36.50
2018-09-05T12:29:12.090Z,36.76
2018-09-05T12:31:42.382Z,37.05
2018-09-05T12:34:12.580Z,37.27
2018-09-05T12:36:42.110Z,37.41
2018-09-05T12:39:22.606Z,37.50
2018-09-05T12:41:52.274Z,37.54
2018-09-05T12:44:21.924Z,37.58
2018-09-05T12:46:51.383Z,37.74
2018-09-05T12:49:20.756Z,37.81
2018-09-05T12:51:50.222Z,37.83
2018-09-05T12:54:19.698Z,38.37
2018-09-05T12:56:49.042Z,38.54
2018-09-05T12:59:18.485Z,38.93
2018-09-05T13:01:48.067Z,39.31
2018-09-05T13:04:17.536Z,39.55
2018-09-05T13:06:47.203Z,39.72
2018-09-05T13:09:16.600Z,39.52
2018-09-05T13:11:47.351Z,38.93
2018-09-05T13:14:21.467Z,38.44
2018-09-05T13:16:50.925Z,38.27
2018-09-05T13:19:20.325Z,38.75
2018-09-05T13:21:49.711Z,39.18
2018-09-05T13:24:19.467Z,39.45
2018-09-05T13:26:49.092Z,39.72
2018-09-05T13:29:18.473Z,40.21
2018-09-05T13:31:47.881Z,40.74
2018-09-05T13:34:20.033Z,41.26
2018-09-05T13:36:49.540Z,41.72
2018-09-05T13:39:19.036Z,42.02
2018-09-05T13:41:49.514Z,42.19
2018-09-05T13:44:18.883Z,42.29
2018-09-05T13:46:48.323Z,41.83
2018-09-05T13:49:17.762Z,41.71
2018-09-05T13:51:52.291Z,42.03
2018-09-05T13:54:21.734Z,42.35
2018-09-05T13:56:52.301Z,42.66
2018-09-05T13:59:21.928Z,43.06
2018-09-05T14:01:51.969Z,43.52
2018-09-05T14:04:21.474Z,43.95
2018-09-05T14:06:50.907Z,44.15
2018-09-05T14:09:20.341Z,44.24
2018-09-05T14:11:49.843Z,44.43
2018-09-05T14:14:19.278Z,44.91
2018-09-05T14:16:48.746Z,45.33
2018-09-05T14:19:18.191Z,45.53
2018-09-05T14:21:48.220Z,45.47
2018-09-05T14:24:17.870Z,45.43
2018-09-05T14:26:47.330Z,45.63
2018-09-05T14:29:16.779Z,45.85
2018-09-05T14:31:46.185Z,45.80
2018-09-05T14:34:15.839Z,45.72
2018-09-05T14:36:45.306Z,45.97
2018-09-05T14:39:14.719Z,46.21
2018-09-05T14:41:44.172Z,46.22
2018-09-05T14:44:13.749Z,46.25
2018-09-05T14:46:43.319Z,46.38
2018-09-05T14:49:13.907Z,46.59
2018-09-05T14:51:43.346Z,46.64
2018-09-05T14:54:12.785Z,46.77
2018-09-05T14:56:45.003Z,46.77
2018-09-05T14:59:14.429Z,46.48
2018-09-05T15:01:43.859Z,46.41
2018-09-05T15:04:13.287Z,45.59
2018-09-05T15:06:49.288Z,45.59
2018-09-05T15:09:19.551Z,45.88
2018-09-05T15:11:49.607Z,46.17
2018-09-05T15:14:19.088Z,46.32
2018-09-05T15:16:48.578Z,46.46
2018-09-05T15:19:18.022Z,46.60
2018-09-05T15:21:47.465Z,46.90
2018-09-05T15:24:16.909Z,47.34
2018-09-05T15:26:46.284Z,47.47
2018-09-05T15:29:15.873Z,47.46
2018-09-05T15:31:45.292Z,47.42
2018-09-05T15:34:14.683Z,47.33
2018-09-05T15:36:44.075Z,47.46
2018-09-05T15:39:13.584Z,47.40
2018-09-05T15:41:42.977Z,47.40
2018-09-05T15:44:12.426Z,47.52
2018-09-05T15:46:42.485Z,47.62
2018-09-05T15:49:12.032Z,47.71
2018-09-05T15:51:41.398Z,47.61
2018-09-05T15:54:11.841Z,47.51
2018-09-05T15:56:41.579Z,47.45
2018-09-05T15:59:11.125Z,47.08
2018-09-05T16:01:40.607Z,47.00
2018-09-05T16:04:11.362Z,47.14
2018-09-05T16:06:40.814Z,47.34
2018-09-05T16:09:11.021Z,46.78
2018-09-05T16:11:40.677Z,46.04
2018-09-05T16:14:10.132Z,45.67
2018-09-05T16:16:39.660Z,45.64
2018-09-05T16:19:09.992Z,45.70
2018-09-05T16:21:39.373Z,45.38
2018-09-05T16:24:08.999Z,44.28
2018-09-05T16:26:38.814Z,43.05
2018-09-05T16:29:08.333Z,41.91
2018-09-05T16:31:38.427Z,40.69
2018-09-05T16:34:08.405Z,39.55
2018-09-05T16:36:37.904Z,39.75
2018-09-05T16:39:10.661Z,40.71
2018-09-05T16:41:40.668Z,41.46
2018-09-05T16:44:10.951Z,41.86
2018-09-05T16:46:40.598Z,42.11
2018-09-05T16:49:10.059Z,42.43
2018-09-05T16:51:39.518Z,42.11
2018-09-05T16:54:10.509Z,40.50
2018-09-05T16:56:40.021Z,38.61
2018-09-05T16:59:10.145Z,37.13
2018-09-05T17:01:39.834Z,35.98
2018-09-05T17:04:09.865Z,34.93
2018-09-05T17:06:40.265Z,33.95
2018-09-05T17:09:11.782Z,33.07
2018-09-05T17:11:41.694Z,32.41
2018-09-05T17:14:11.154Z,31.83
2018-09-05T17:16:43.053Z,31.32
2018-09-05T17:19:13.087Z,30.85
2018-09-05T17:21:42.514Z,30.44
2018-09-05T17:24:11.929Z,30.10
2018-09-05T17:26:41.295Z,29.82
2018-09-05T17:29:11.697Z,29.57
2018-09-05T17:31:41.142Z,29.26
2018-09-05T17:34:10.599Z,29.00
2018-09-05T17:36:40.030Z,28.75
2018-09-05T17:39:11.348Z,28.57
2018-09-05T17:41:53.198Z,28.42
2018-09-05T17:44:22.665Z,28.27
2018-09-05T17:46:52.133Z,28.11
2018-09-05T17:49:21.574Z,27.93
2018-09-05T17:51:50.957Z,27.76
2018-09-05T17:54:20.485Z,27.53
2018-09-05T17:56:50.874Z,27.34
2018-09-05T17:59:20.439Z,27.17
2018-09-05T18:01:51.464Z,27.01
2018-09-05T18:04:24.181Z,26.86
2018-09-05T18:06:53.588Z,26.71
2018-09-05T18:09:23.107Z,26.58
2018-09-05T18:11:52.963Z,26.48
2018-09-05T18:14:22.349Z,26.37
2018-09-05T18:16:51.785Z,26.26
2018-09-05T18:19:21.171Z,26.18
2018-09-05T18:21:50.720Z,26.08
2018-09-05T18:24:20.273Z,25.97
2018-09-05T18:26:49.601Z,25.98
2018-09-05T18:29:23.501Z,25.75
2018-09-05T18:31:53.269Z,25.55
2018-09-05T18:34:22.666Z,25.42
2018-09-05T18:36:52.142Z,25.27
2018-09-05T18:39:21.678Z,25.13
2018-09-05T18:41:51.130Z,25.00
2018-09-05T18:44:20.817Z,24.90
2018-09-05T18:46:50.781Z,24.81
2018-09-05T18:49:20.684Z,24.74
2018-09-05T18:51:50.120Z,24.66
2018-09-05T18:54:19.626Z,24.60
2018-09-05T18:56:49.042Z,24.54
2018-09-05T18:59:58.012Z,24.54
2018-09-05T19:02:27.633Z,24.48
2018-09-05T19:04:57.333Z,24.39
2018-09-05T19:07:26.942Z,24.35
2018-09-05T19:12:38.816Z,24.27
2018-09-05T19:15:08.545Z,24.24
2018-09-05T19:17:38.279Z,24.19
2018-09-05T19:20:08.948Z,24.13
2018-09-05T19:22:39.411Z,24.11
2018-09-05T19:25:09.246Z,24.09
2018-09-05T19:27:38.864Z,24.07
2018-09-05T19:30:08.618Z,24.04
2018-09-05T19:32:38.851Z,23.99
2018-09-05T19:35:08.891Z,23.97
2018-09-05T19:37:38.756Z,23.94
2018-09-05T19:40:08.285Z,23.90
2018-09-05T19:42:38.248Z,23.86
2018-09-05T19:45:07.960Z,23.80
2018-09-05T19:47:37.357Z,23.76
2018-09-05T19:50:07.147Z,23.71
2018-09-05T19:52:36.756Z,23.66
2018-09-05T19:55:06.576Z,23.76
2018-09-05T19:57:35.950Z,23.66
2018-09-05T20:00:06.453Z,23.58
2018-09-05T20:02:35.869Z,23.52
2018-09-05T20:05:05.538Z,23.48
2018-09-05T20:07:35.151Z,23.41
2018-09-05T20:10:04.534Z,23.35
2018-09-05T20:12:33.922Z,23.28
2018-09-05T20:15:03.296Z,23.24
2018-09-05T20:17:32.642Z,23.22
2018-09-05T20:20:01.997Z,23.20
2018-09-05T20:22:31.362Z,23.18
2018-09-05T20:25:00.713Z,23.18
2018-09-05T20:27:30.082Z,23.17
2018-09-05T20:29:59.413Z,23.14
2018-09-05T20:32:28.780Z,23.12
2018-09-05T20:34:58.118Z,23.08
2018-09-05T20:37:28.014Z,22.98
2018-09-05T20:39:57.345Z,23.00
2018-09-05T20:42:27.792Z,22.98
2018-09-05T20:44:57.444Z,22.97
2018-09-05T20:47:26.800Z,22.93
2018-09-05T20:49:56.178Z,22.88
2018-09-05T20:52:25.520Z,22.83
2018-09-05T20:54:54.865Z,22.79
2018-09-05T20:57:24.185Z,22.74
2018-09-05T20:59:53.629Z,22.66
2018-09-05T21:02:22.994Z,22.64
2018-09-05T21:04:52.393Z,22.57
2018-09-05T21:07:21.905Z,22.53
2018-09-05T21:09:51.248Z,22.48
2018-09-05T21:12:20.601Z,22.45
2018-09-05T21:14:49.947Z,22.42
2018-09-05T21:17:19.526Z,22.39
2018-09-05T21:19:50.030Z,22.36
2018-09-05T21:22:19.671Z,22.33
2018-09-05T21:24:49.496Z,22.30
2018-09-05T21:27:19.156Z,22.27
2018-09-05T21:29:48.787Z,22.26
2018-09-05T21:32:18.147Z,22.24
2018-09-05T21:34:47.484Z,22.21
2018-09-05T21:37:16.818Z,22.19
2018-09-05T21:39:46.314Z,22.18
2018-09-05T21:42:15.657Z,22.16
2018-09-05T21:44:44.981Z,22.16
2018-09-05T21:47:14.514Z,22.15
2018-09-05T21:49:44.051Z,22.13
2018-09-05T21:52:13.523Z,22.10
2018-09-05T21:54:42.870Z,22.06
2018-09-05T21:57:12.221Z,22.05
2018-09-05T21:59:41.575Z,22.03
2018-09-05T22:02:10.897Z,22.02
2018-09-05T22:04:40.294Z,21.99
2018-09-05T22:07:09.662Z,21.96
2018-09-05T22:09:38.985Z,21.92
2018-09-05T22:12:08.470Z,21.88
2018-09-05T22:14:37.804Z,21.83
2018-09-05T22:17:07.265Z,21.80
2018-09-05T22:19:36.587Z,21.62
2018-09-05T22:22:06.381Z,21.70
2018-09-05T22:24:35.729Z,21.67
2018-09-05T22:27:05.995Z,21.62
2018-09-05T22:29:35.315Z,21.57
2018-09-05T22:37:12.150Z,21.23
2018-09-05T22:39:41.480Z,21.21
2018-09-05T22:42:12.979Z,21.16
2018-09-05T22:44:59.170Z,21.09
2018-09-05T22:48:47.715Z,21.01
2018-09-05T22:52:13.010Z,20.86
2018-09-05T22:57:24.461Z,20.78
2018-09-05T23:00:11.287Z,20.76
2018-09-05T23:03:27.393Z,20.72
2018-09-05T23:08:38.627Z,20.61
2018-09-05T23:13:32.719Z,20.37
2018-09-05T23:16:22.334Z,20.17
2018-09-05T23:19:45.130Z,20.13
2018-09-05T23:22:23.049Z,20.05
2018-09-05T23:25:00.524Z,20.02
2018-09-05T23:27:38.888Z,19.99
2018-09-05T23:30:12.917Z,19.97
2018-09-05T23:32:50.656Z,19.93
2018-09-05T23:35:28.295Z,19.89
2018-09-05T23:38:07.531Z,19.87
2018-09-05T23:40:46.294Z,19.83
2018-09-05T23:43:24.951Z,19.79
2018-09-05T23:46:02.669Z,19.74
2018-09-05T23:48:41.256Z,19.72
2018-09-05T23:51:18.728Z,19.69
2018-09-05T23:53:56.829Z,19.67
2018-09-05T23:56:36.777Z,19.64
2018-09-05T23:59:13.586Z,19.63
